Camden, Alabama
Current Conditions -  °F | °C
As of 11:35 PM on Saturday 22 Nov 2014 (Local Time) from KSEM Reporting Station
Overcast Overcast  
Wind Chill: 57°   Ceiling: 1500
Heat Index: 57°   Visibility: 10mi
Dew Point: 52°   Wind: 12mph
Humidity: 82%   Direction: 100°E
Pressure: 30.01"   Gusts: 18mph
Location:  31.99°N, 87.29°W
Report Text: KSEM 230535Z AUTO 10010G16KT 10SM OVC015 14/11 A3001 RMK AO2
Loading
Personal Weather Stations






























Interactive Weather Map New forecast layout! Learn more

10-Day Weather Forecast

Advertisements
Track Severe Weather on mobile